PWSweather.com
Personal Weather Stations
Station Observations
SHAHALMS1
Eftra, Falkenberg, HA

EftraFalkenberg, HA

Lat: 56.85, Lon: 12.65

Elevation: 140

Station Type:

http://hem.passagen.se/risarp101

High Low Average
Temperature 69.4°F20.8°C 55.0°F12.8°C 62.3°F16.8°C
Dew Point 56.7°F13.7°C 49.3°F9.6°C 52.9°F11.6°C
Winds 10.6 mph 17.1 kmh 4.0 mph 6.4 kmh 7.0 mph SE11.3 kmh SE
Wind Gusts 26.5 mph42.6 kmh 8.9 mph14.3 kmh 15.0 mph24.1 kmh
Humidity 84% 62% 72%
Pressure 30.12 in1020.0 mb 30.01 in1016.3 mb -
Precipitation 0.00 in0.0 mm - -
Hour Temp Dew Point Humidity Winds Wind Gusts Pressure Precip Precip Rate Daily Precip Total
12:00 AM 55.0°F12.8°C 49.6°F9.8°C 82% 7.5 mph SE12.1 kmh SE 12.5 mph20.1 kmh 30.09 in1019.0 mb 0.00 in0.0 mm 0.00 in0.0 mm 0.00 in0.0 mm
12:15 AM 56.5°F13.6°C 51.7°F10.9°C 84% 7.1 mph SE11.4 kmh SE 13.6 mph21.9 kmh 30.07 in1018.3 mb 0.00 in0.0 mm 0.00 in0.0 mm 0.00 in0.0 mm
12:30 AM 57.6°F14.2°C 52.4°F11.3°C 83% 8.0 mph SE12.9 kmh SE 17.5 mph28.2 kmh 30.09 in1019.0 mb 0.00 in0.0 mm 0.00 in0.0 mm 0.00 in0.0 mm
12:45 AM 58.3°F14.6°C 52.8°F11.6°C 82% 7.6 mph SSE12.2 kmh SSE 16.5 mph26.6 kmh 30.07 in1018.3 mb 0.00 in0.0 mm 0.00 in0.0 mm 0.00 in0.0 mm
01:00 AM 58.6°F14.8°C 52.5°F11.4°C 80% 7.5 mph SSE12.1 kmh SSE 20.0 mph32.2 kmh 30.07 in1018.3 mb 0.00 in0.0 mm 0.00 in0.0 mm 0.00 in0.0 mm
01:15 AM 58.8°F14.9°C 52.3°F11.3°C 79% 7.5 mph SE12.1 kmh SE 15.4 mph24.8 kmh 30.09 in1019.0 mb 0.00 in0.0 mm 0.00 in0.0 mm 0.00 in0.0 mm
01:30 AM 59.2°F15.1°C 52.3°F11.3°C 78% 8.5 mph SSE13.7 kmh SSE 21.8 mph35.1 kmh 30.09 in1019.0 mb 0.00 in0.0 mm 0.00 in0.0 mm 0.00 in0.0 mm
01:45 AM 58.8°F14.9°C 51.6°F10.9°C 77% 7.7 mph SE12.4 kmh SE 14.7 mph23.7 kmh 30.09 in1019.0 mb 0.00 in0.0 mm 0.00 in0.0 mm 0.00 in0.0 mm
02:00 AM 57.9°F14.4°C 50.8°F10.4°C 77% 7.9 mph SE12.7 kmh SE 12.9 mph20.8 kmh 30.12 in1020.0 mb 0.00 in0.0 mm 0.00 in0.0 mm 0.00 in0.0 mm
02:15 AM 57.2°F14.0°C 50.1°F10.1°C 77% 8.2 mph SE13.2 kmh SE 14.0 mph22.5 kmh 30.09 in1019.0 mb 0.00 in0.0 mm 0.00 in0.0 mm 0.00 in0.0 mm
02:30 AM 56.5°F13.6°C 49.7°F9.8°C 78% 8.4 mph SE13.5 kmh SE 14.0 mph22.5 kmh 30.09 in1019.0 mb 0.00 in0.0 mm 0.00 in0.0 mm 0.00 in0.0 mm
02:45 AM 56.1°F13.4°C 49.4°F9.7°C 78% 8.1 mph SE13.0 kmh SE 12.5 mph20.1 kmh 30.09 in1019.0 mb 0.00 in0.0 mm 0.00 in0.0 mm 0.00 in0.0 mm
03:00 AM 55.9°F13.3°C 49.5°F9.7°C 79% 9.0 mph SE14.5 kmh SE 12.9 mph20.8 kmh 30.09 in1019.0 mb 0.00 in0.0 mm 0.00 in0.0 mm 0.00 in0.0 mm
03:15 AM 55.8°F13.2°C 49.3°F9.6°C 79% 8.7 mph SE14.0 kmh SE 13.6 mph21.9 kmh 30.09 in1019.0 mb 0.00 in0.0 mm 0.00 in0.0 mm 0.00 in0.0 mm
03:30 AM 55.8°F13.2°C 49.7°F9.8°C 80% 8.1 mph SE13.0 kmh SE 12.9 mph20.8 kmh 30.09 in1019.0 mb 0.00 in0.0 mm 0.00 in0.0 mm 0.00 in0.0 mm
03:45 AM 55.6°F13.1°C 49.5°F9.7°C 80% 8.4 mph SE13.5 kmh SE 13.6 mph21.9 kmh 30.07 in1018.3 mb 0.00 in0.0 mm 0.00 in0.0 mm 0.00 in0.0 mm
04:00 AM 55.8°F13.2°C 49.7°F9.8°C 80% 7.9 mph ESE12.7 kmh ESE 13.6 mph21.9 kmh 30.07 in1018.3 mb 0.00 in0.0 mm 0.00 in0.0 mm 0.00 in0.0 mm
04:15 AM 55.8°F13.2°C 50.0°F10.0°C 81% 7.8 mph ESE12.6 kmh ESE 12.5 mph20.1 kmh 30.07 in1018.3 mb 0.00 in0.0 mm 0.00 in0.0 mm 0.00 in0.0 mm
04:30 AM 56.8°F13.8°C 51.4°F10.8°C 82% 7.4 mph SE11.9 kmh SE 14.0 mph22.5 kmh 30.09 in1019.0 mb 0.00 in0.0 mm 0.00 in0.0 mm 0.00 in0.0 mm
04:45 AM 58.3°F14.6°C 52.8°F11.6°C 82% 7.0 mph SE11.3 kmh SE 14.0 mph22.5 kmh 30.09 in1019.0 mb 0.00 in0.0 mm 0.00 in0.0 mm 0.00 in0.0 mm
05:00 AM 59.4°F15.2°C 52.8°F11.6°C 79% 6.8 mph SSE10.9 kmh SSE 14.0 mph22.5 kmh 30.09 in1019.0 mb 0.00 in0.0 mm 0.00 in0.0 mm 0.00 in0.0 mm
05:15 AM 60.1°F15.6°C 52.8°F11.6°C 77% 7.5 mph S12.1 kmh S 22.9 mph36.9 kmh 30.09 in1019.0 mb 0.00 in0.0 mm 0.00 in0.0 mm 0.00 in0.0 mm
05:30 AM 60.3°F15.7°C 52.3°F11.3°C 75% 8.7 mph S14.0 kmh S 26.5 mph42.6 kmh 30.09 in1019.0 mb 0.00 in0.0 mm 0.00 in0.0 mm 0.00 in0.0 mm
05:45 AM 60.4°F15.8°C 52.1°F11.2°C 74% 8.5 mph S13.7 kmh S 23.3 mph37.5 kmh 30.12 in1020.0 mb 0.00 in0.0 mm 0.00 in0.0 mm 0.00 in0.0 mm
06:00 AM 60.3°F15.7°C 51.6°F10.9°C 73% 8.4 mph S13.5 kmh S 21.1 mph34.0 kmh 30.09 in1019.0 mb 0.00 in0.0 mm 0.00 in0.0 mm 0.00 in0.0 mm
06:15 AM 59.9°F15.5°C 51.2°F10.7°C 73% 7.4 mph S11.9 kmh S 16.8 mph27.0 kmh 30.09 in1019.0 mb 0.00 in0.0 mm 0.00 in0.0 mm 0.00 in0.0 mm
06:30 AM 59.5°F15.3°C 50.9°F10.5°C 73% 8.2 mph S13.2 kmh S 19.3 mph31.1 kmh 30.09 in1019.0 mb 0.00 in0.0 mm 0.00 in0.0 mm 0.00 in0.0 mm
06:45 AM 59.4°F15.2°C 51.1°F10.6°C 74% 8.0 mph S12.9 kmh S 16.5 mph26.6 kmh 30.07 in1018.3 mb 0.00 in0.0 mm 0.00 in0.0 mm 0.00 in0.0 mm
07:00 AM 59.4°F15.2°C 51.1°F10.6°C 74% 7.8 mph S12.6 kmh S 21.5 mph34.6 kmh 30.07 in1018.3 mb 0.00 in0.0 mm 0.00 in0.0 mm 0.00 in0.0 mm
07:15 AM 59.5°F15.3°C 51.6°F10.9°C 75% 7.0 mph S11.3 kmh S 17.2 mph27.7 kmh 30.09 in1019.0 mb 0.00 in0.0 mm 0.00 in0.0 mm 0.00 in0.0 mm
07:30 AM 59.7°F15.4°C 51.8°F11.0°C 75% 6.4 mph S10.3 kmh S 16.1 mph25.9 kmh 30.09 in1019.0 mb 0.00 in0.0 mm 0.00 in0.0 mm 0.00 in0.0 mm
07:45 AM 60.1°F15.6°C 52.1°F11.2°C 75% 6.2 mph SSE10.0 kmh SSE 13.6 mph21.9 kmh 30.09 in1019.0 mb 0.00 in0.0 mm 0.00 in0.0 mm 0.00 in0.0 mm
08:00 AM 60.6°F15.9°C 52.6°F11.4°C 75% 7.0 mph SSE11.3 kmh SSE 12.5 mph20.1 kmh 30.09 in1019.0 mb 0.00 in0.0 mm 0.00 in0.0 mm 0.00 in0.0 mm
08:15 AM 61.0°F16.1°C 53.0°F11.7°C 75% 5.9 mph S9.5 kmh S 14.0 mph22.5 kmh 30.09 in1019.0 mb 0.00 in0.0 mm 0.00 in0.0 mm 0.00 in0.0 mm
08:30 AM 61.5°F16.4°C 53.2°F11.8°C 74% 7.4 mph SSE11.9 kmh SSE 19.0 mph30.6 kmh 30.09 in1019.0 mb 0.00 in0.0 mm 0.00 in0.0 mm 0.00 in0.0 mm
08:45 AM 62.1°F16.7°C 53.7°F12.1°C 74% 6.1 mph SSE9.8 kmh SSE 14.0 mph22.5 kmh 30.09 in1019.0 mb 0.00 in0.0 mm 0.00 in0.0 mm 0.00 in0.0 mm
09:00 AM 62.8°F17.1°C 54.0°F12.2°C 73% 6.1 mph SSE9.8 kmh SSE 14.0 mph22.5 kmh 30.09 in1019.0 mb 0.00 in0.0 mm 0.00 in0.0 mm 0.00 in0.0 mm
09:15 AM 63.3°F17.4°C 54.1°F12.3°C 72% 6.5 mph S10.5 kmh S 20.4 mph32.8 kmh 30.09 in1019.0 mb 0.00 in0.0 mm 0.00 in0.0 mm 0.00 in0.0 mm
09:30 AM 63.7°F17.6°C 54.1°F12.3°C 71% 6.2 mph SSE10.0 kmh SSE 11.8 mph19.0 kmh 30.09 in1019.0 mb 0.00 in0.0 mm 0.00 in0.0 mm 0.00 in0.0 mm
09:45 AM 64.2°F17.9°C 54.6°F12.6°C 71% 5.3 mph SSE8.5 kmh SSE 14.3 mph23.0 kmh 30.12 in1020.0 mb 0.00 in0.0 mm 0.00 in0.0 mm 0.00 in0.0 mm
10:00 AM 64.6°F18.1°C 55.0°F12.8°C 71% 5.1 mph S8.2 kmh S 10.4 mph16.7 kmh 30.09 in1019.0 mb 0.00 in0.0 mm 0.00 in0.0 mm 0.00 in0.0 mm
10:15 AM 64.8°F18.2°C 54.7°F12.6°C 70% 4.8 mph SSE7.7 kmh SSE 12.2 mph19.6 kmh 30.09 in1019.0 mb 0.00 in0.0 mm 0.00 in0.0 mm 0.00 in0.0 mm
10:30 AM 65.1°F18.4°C 55.1°F12.8°C 70% 5.2 mph SSE8.4 kmh SSE 14.0 mph22.5 kmh 30.09 in1019.0 mb 0.00 in0.0 mm 0.00 in0.0 mm 0.00 in0.0 mm
10:45 AM 65.8°F18.8°C 55.4°F13.0°C 69% 5.6 mph SSE9.0 kmh SSE 13.6 mph21.9 kmh 30.09 in1019.0 mb 0.00 in0.0 mm 0.00 in0.0 mm 0.00 in0.0 mm
11:00 AM 66.7°F19.3°C 55.8°F13.2°C 68% 5.2 mph SSE8.4 kmh SSE 13.6 mph21.9 kmh 30.12 in1020.0 mb 0.00 in0.0 mm 0.00 in0.0 mm 0.00 in0.0 mm
11:15 AM 67.5°F19.7°C 56.1°F13.4°C 67% 6.6 mph S10.6 kmh S 17.2 mph27.7 kmh 30.12 in1020.0 mb 0.00 in0.0 mm 0.00 in0.0 mm 0.00 in0.0 mm
11:30 AM 68.0°F20.0°C 55.8°F13.2°C 65% 7.0 mph S11.3 kmh S 15.7 mph25.3 kmh 30.09 in1019.0 mb 0.00 in0.0 mm 0.00 in0.0 mm 0.00 in0.0 mm
11:45 AM 68.4°F20.2°C 55.7°F13.2°C 64% 6.3 mph S10.1 kmh S 21.5 mph34.6 kmh 30.07 in1018.3 mb 0.00 in0.0 mm 0.00 in0.0 mm 0.00 in0.0 mm
12:00 PM 68.2°F20.1°C 55.1°F12.8°C 63% 7.3 mph S11.7 kmh S 17.2 mph27.7 kmh 30.09 in1019.0 mb 0.00 in0.0 mm 0.00 in0.0 mm 0.00 in0.0 mm
12:15 PM 68.2°F20.1°C 55.1°F12.8°C 63% 8.2 mph S13.2 kmh S 17.2 mph27.7 kmh 30.07 in1018.3 mb 0.00 in0.0 mm 0.00 in0.0 mm 0.00 in0.0 mm
12:30 PM 68.5°F20.3°C 55.9°F13.3°C 64% 5.9 mph S9.5 kmh S 13.6 mph21.9 kmh 30.07 in1018.3 mb 0.00 in0.0 mm 0.00 in0.0 mm 0.00 in0.0 mm
12:45 PM 68.4°F20.2°C 55.7°F13.2°C 64% 6.8 mph S10.9 kmh S 20.0 mph32.2 kmh 30.09 in1019.0 mb 0.00 in0.0 mm 0.00 in0.0 mm 0.00 in0.0 mm
01:00 PM 68.5°F20.3°C 55.9°F13.3°C 64% 5.0 mph S8.0 kmh S 14.0 mph22.5 kmh 30.09 in1019.0 mb 0.00 in0.0 mm 0.00 in0.0 mm 0.00 in0.0 mm
01:15 PM 68.7°F20.4°C 56.0°F13.3°C 64% 6.5 mph S10.5 kmh S 23.6 mph38.0 kmh 30.09 in1019.0 mb 0.00 in0.0 mm 0.00 in0.0 mm 0.00 in0.0 mm
01:30 PM 68.9°F20.5°C 56.2°F13.4°C 64% 5.4 mph S8.7 kmh S 11.8 mph19.0 kmh 30.09 in1019.0 mb 0.00 in0.0 mm 0.00 in0.0 mm 0.00 in0.0 mm
01:45 PM 69.3°F20.7°C 56.6°F13.7°C 64% 4.6 mph SSE7.4 kmh SSE 16.5 mph26.6 kmh 30.09 in1019.0 mb 0.00 in0.0 mm 0.00 in0.0 mm 0.00 in0.0 mm
02:00 PM 69.4°F20.8°C 56.7°F13.7°C 64% 4.8 mph S7.7 kmh S 20.0 mph32.2 kmh 30.09 in1019.0 mb 0.00 in0.0 mm 0.00 in0.0 mm 0.00 in0.0 mm
02:15 PM 69.3°F20.7°C 56.1°F13.4°C 63% 6.0 mph S9.7 kmh S 13.6 mph21.9 kmh 30.09 in1019.0 mb 0.00 in0.0 mm 0.00 in0.0 mm 0.00 in0.0 mm
02:30 PM 69.1°F20.6°C 56.0°F13.3°C 63% 8.4 mph S13.5 kmh S 21.8 mph35.1 kmh 30.09 in1019.0 mb 0.00 in0.0 mm 0.00 in0.0 mm 0.00 in0.0 mm
03:00 PM 69.1°F20.6°C 55.5°F13.1°C 62% 7.5 mph S12.1 kmh S 16.1 mph25.9 kmh 30.07 in1018.3 mb 0.00 in0.0 mm 0.00 in0.0 mm 0.00 in0.0 mm
03:15 PM 68.7°F20.4°C 55.2°F12.9°C 62% 10.6 mph S17.1 kmh S 17.5 mph28.2 kmh 30.07 in1018.3 mb 0.00 in0.0 mm 0.00 in0.0 mm 0.00 in0.0 mm
03:30 PM 68.5°F20.3°C 55.0°F12.8°C 62% 9.9 mph S15.9 kmh S 12.2 mph19.6 kmh 30.07 in1018.3 mb 0.00 in0.0 mm 0.00 in0.0 mm 0.00 in0.0 mm
03:45 PM 68.4°F20.2°C 54.8°F12.7°C 62% 4.0 mph SSE6.4 kmh SSE 12.2 mph19.6 kmh 30.07 in1018.3 mb 0.00 in0.0 mm 0.00 in0.0 mm 0.00 in0.0 mm
04:00 PM 67.8°F19.9°C 54.8°F12.7°C 63% 5.9 mph SSE9.5 kmh SSE 14.0 mph22.5 kmh 30.07 in1018.3 mb 0.00 in0.0 mm 0.00 in0.0 mm 0.00 in0.0 mm
04:15 PM 67.3°F19.6°C 54.3°F12.4°C 63% 6.8 mph S10.9 kmh S 12.9 mph20.8 kmh 30.07 in1018.3 mb 0.00 in0.0 mm 0.00 in0.0 mm 0.00 in0.0 mm
04:30 PM 66.7°F19.3°C 53.7°F12.1°C 63% 7.1 mph SE11.4 kmh SE 16.1 mph25.9 kmh 30.07 in1018.3 mb 0.00 in0.0 mm 0.00 in0.0 mm 0.00 in0.0 mm
04:45 PM 66.4°F19.1°C 53.4°F11.9°C 63% 6.4 mph SSE10.3 kmh SSE 15.0 mph24.1 kmh 30.07 in1018.3 mb 0.00 in0.0 mm 0.00 in0.0 mm 0.00 in0.0 mm
05:00 PM 66.0°F18.9°C 53.9°F12.2°C 65% 6.6 mph SE10.6 kmh SE 12.9 mph20.8 kmh 30.07 in1018.3 mb 0.00 in0.0 mm 0.00 in0.0 mm 0.00 in0.0 mm
05:15 PM 65.7°F18.7°C 53.6°F12.0°C 65% 7.2 mph SSE11.6 kmh SSE 15.7 mph25.3 kmh 30.07 in1018.3 mb 0.00 in0.0 mm 0.00 in0.0 mm 0.00 in0.0 mm
05:30 PM 65.3°F18.5°C 53.2°F11.8°C 65% 6.9 mph SE11.1 kmh SE 19.3 mph31.1 kmh 30.04 in1017.3 mb 0.00 in0.0 mm 0.00 in0.0 mm 0.00 in0.0 mm
05:45 PM 64.9°F18.3°C 53.3°F11.8°C 66% 6.3 mph SE10.1 kmh SE 13.6 mph21.9 kmh 30.07 in1018.3 mb 0.00 in0.0 mm 0.00 in0.0 mm 0.00 in0.0 mm
06:00 PM 64.6°F18.1°C 53.4°F11.9°C 67% 6.8 mph SE10.9 kmh SE 13.6 mph21.9 kmh 30.07 in1018.3 mb 0.00 in0.0 mm 0.00 in0.0 mm 0.00 in0.0 mm
06:15 PM 64.4°F18.0°C 53.2°F11.8°C 67% 6.0 mph SSE9.7 kmh SSE 19.7 mph31.7 kmh 30.07 in1018.3 mb 0.00 in0.0 mm 0.00 in0.0 mm 0.00 in0.0 mm
06:30 PM 64.2°F17.9°C 53.0°F11.7°C 67% 6.6 mph SSE10.6 kmh SSE 13.6 mph21.9 kmh 30.07 in1018.3 mb 0.00 in0.0 mm 0.00 in0.0 mm 0.00 in0.0 mm
06:45 PM 64.0°F17.8°C 52.9°F11.6°C 67% 7.3 mph SE11.7 kmh SE 16.5 mph26.6 kmh 30.07 in1018.3 mb 0.00 in0.0 mm 0.00 in0.0 mm 0.00 in0.0 mm
07:00 PM 63.9°F17.7°C 53.1°F11.7°C 68% 8.8 mph SE14.2 kmh SE 17.9 mph28.8 kmh 30.07 in1018.3 mb 0.00 in0.0 mm 0.00 in0.0 mm 0.00 in0.0 mm
07:15 PM 63.5°F17.5°C 52.7°F11.5°C 68% 7.4 mph SE11.9 kmh SE 16.5 mph26.6 kmh 30.07 in1018.3 mb 0.00 in0.0 mm 0.00 in0.0 mm 0.00 in0.0 mm
07:30 PM 63.1°F17.3°C 52.4°F11.3°C 68% 6.8 mph SE10.9 kmh SE 16.5 mph26.6 kmh 30.07 in1018.3 mb 0.00 in0.0 mm 0.00 in0.0 mm 0.00 in0.0 mm
07:45 PM 63.1°F17.3°C 52.4°F11.3°C 68% 6.4 mph SE10.3 kmh SE 13.6 mph21.9 kmh 30.07 in1018.3 mb 0.00 in0.0 mm 0.00 in0.0 mm 0.00 in0.0 mm
08:00 PM 62.8°F17.1°C 52.1°F11.2°C 68% 5.9 mph SE9.5 kmh SE 13.6 mph21.9 kmh 30.07 in1018.3 mb 0.00 in0.0 mm 0.00 in0.0 mm 0.00 in0.0 mm
08:15 PM 62.1°F16.7°C 51.8°F11.0°C 69% 5.6 mph ESE9.0 kmh ESE 12.2 mph19.6 kmh 30.07 in1018.3 mb 0.00 in0.0 mm 0.00 in0.0 mm 0.00 in0.0 mm
08:30 PM 61.3°F16.3°C 51.5°F10.8°C 70% 6.2 mph E10.0 kmh E 12.9 mph20.8 kmh 30.07 in1018.3 mb 0.00 in0.0 mm 0.00 in0.0 mm 0.00 in0.0 mm
08:45 PM 61.2°F16.2°C 51.7°F10.9°C 71% 6.8 mph ESE10.9 kmh ESE 16.5 mph26.6 kmh 30.04 in1017.3 mb 0.00 in0.0 mm 0.00 in0.0 mm 0.00 in0.0 mm
09:00 PM 60.4°F15.8°C 51.4°F10.8°C 72% 5.6 mph E9.0 kmh E 12.5 mph20.1 kmh 30.04 in1017.3 mb 0.00 in0.0 mm 0.00 in0.0 mm 0.00 in0.0 mm
09:15 PM 60.1°F15.6°C 51.4°F10.8°C 73% 5.1 mph ESE8.2 kmh ESE 10.4 mph16.7 kmh 30.04 in1017.3 mb 0.00 in0.0 mm 0.00 in0.0 mm 0.00 in0.0 mm
09:30 PM 60.3°F15.7°C 51.9°F11.1°C 74% 7.1 mph ESE11.4 kmh ESE 21.1 mph34.0 kmh 30.04 in1017.3 mb 0.00 in0.0 mm 0.00 in0.0 mm 0.00 in0.0 mm
09:45 PM 60.1°F15.6°C 51.8°F11.0°C 74% 7.0 mph ESE11.3 kmh ESE 15.7 mph25.3 kmh 30.01 in1016.3 mb 0.00 in0.0 mm 0.00 in0.0 mm 0.00 in0.0 mm
10:00 PM 59.7°F15.4°C 51.4°F10.8°C 74% 5.9 mph E9.5 kmh E 12.9 mph20.8 kmh 30.04 in1017.3 mb 0.00 in0.0 mm 0.00 in0.0 mm 0.00 in0.0 mm
10:15 PM 59.4°F15.2°C 51.4°F10.8°C 75% 5.6 mph ESE9.0 kmh ESE 10.4 mph16.7 kmh 30.01 in1016.3 mb 0.00 in0.0 mm 0.00 in0.0 mm 0.00 in0.0 mm
10:30 PM 59.4°F15.2°C 51.4°F10.8°C 75% 5.7 mph E9.2 kmh E 12.5 mph20.1 kmh 30.01 in1016.3 mb 0.00 in0.0 mm 0.00 in0.0 mm 0.00 in0.0 mm
10:47 PM 59.0°F15.0°C 51.1°F10.6°C 75% 5.9 mph E9.5 kmh E 12.2 mph19.6 kmh 30.01 in1016.3 mb 0.00 in0.0 mm 0.00 in0.0 mm 0.00 in0.0 mm
11:00 PM 58.8°F14.9°C 50.9°F10.5°C 75% 6.1 mph E9.8 kmh E 12.9 mph20.8 kmh 30.01 in1016.3 mb 0.00 in0.0 mm 0.00 in0.0 mm 0.00 in0.0 mm
11:15 PM 58.5°F14.7°C 50.9°F10.5°C 76% 6.7 mph E10.8 kmh E 12.5 mph20.1 kmh 30.01 in1016.3 mb 0.00 in0.0 mm 0.00 in0.0 mm 0.00 in0.0 mm
11:30 PM 58.1°F14.5°C 50.6°F10.3°C 76% 6.0 mph E9.7 kmh E 10.4 mph16.7 kmh 30.04 in1017.3 mb 0.00 in0.0 mm 0.00 in0.0 mm 0.00 in0.0 mm
11:45 PM 57.6°F14.2°C 50.0°F10.0°C 76% 4.7 mph E7.6 kmh E 8.9 mph14.3 kmh 30.07 in1018.3 mb 0.00 in0.0 mm 0.00 in0.0 mm 0.00 in0.0 mm